createdAt,value
2023-01-13T00:05:04.332Z,10.90
2023-01-13T00:10:26.429Z,11.50
2023-01-13T00:16:03.641Z,8.50
2023-01-13T00:21:25.655Z,6.90
2023-01-13T00:26:47.673Z,7.80
2023-01-13T00:32:09.500Z,10.90
2023-01-13T00:37:31.335Z,6.70
2023-01-13T00:43:11.721Z,12.60
2023-01-13T00:48:34.660Z,15.50
2023-01-13T00:53:58.004Z,12.10
2023-01-13T00:59:20.021Z,10.60
2023-01-13T01:04:42.063Z,17.90
2023-01-13T01:10:03.983Z,11.60
2023-01-13T01:15:26.012Z,11.70
2023-01-13T01:20:48.039Z,10.40
2023-01-13T01:26:15.985Z,9.40
2023-01-13T01:31:37.628Z,8.00
2023-01-13T01:36:59.648Z,12.00
2023-01-13T01:42:41.945Z,8.60
2023-01-13T01:48:04.680Z,6.40
2023-01-13T01:53:28.014Z,9.20
2023-01-13T01:58:51.382Z,8.70
2023-01-13T02:04:40.479Z,11.40
2023-01-13T02:10:06.026Z,8.40
2023-01-13T02:15:39.082Z,7.10
2023-01-13T02:21:17.151Z,7.10
2023-01-13T02:26:41.607Z,8.60
2023-01-13T02:32:14.373Z,6.20
2023-01-13T02:37:40.156Z,9.80
2023-01-13T02:43:25.529Z,6.80
2023-01-13T02:48:49.067Z,7.70
2023-01-13T02:54:22.046Z,7.90
2023-01-13T02:59:44.317Z,6.80
2023-01-13T03:05:06.997Z,6.00
2023-01-13T03:10:41.067Z,6.30
2023-01-13T03:16:13.548Z,7.80
2023-01-13T03:21:46.199Z,9.40
2023-01-13T03:27:15.940Z,8.00
2023-01-13T03:32:44.135Z,9.00
2023-01-13T03:38:24.007Z,8.80
2023-01-13T03:44:13.223Z,11.10
2023-01-13T03:55:21.671Z,12.70
2023-01-13T04:00:48.418Z,9.90
2023-01-13T04:06:19.680Z,11.10
2023-01-13T04:11:44.681Z,18.50
2023-01-13T04:17:06.850Z,10.30
2023-01-13T04:22:30.583Z,9.70
2023-01-13T04:27:52.316Z,9.20
2023-01-13T04:33:15.252Z,10.30
2023-01-13T04:38:36.972Z,7.10
2023-01-13T04:43:59.106Z,7.60
2023-01-13T04:49:21.232Z,17.20
2023-01-13T04:54:42.777Z,13.70
2023-01-13T05:00:07.096Z,9.10
2023-01-13T05:05:29.833Z,6.20
2023-01-13T05:10:51.863Z,12.40
2023-01-13T05:16:32.369Z,7.80
2023-01-13T05:22:15.267Z,6.60
2023-01-13T05:27:37.608Z,8.90
2023-01-13T05:32:59.444Z,7.50
2023-01-13T05:38:22.100Z,11.00
2023-01-13T05:43:45.090Z,9.00
2023-01-13T05:49:06.971Z,14.10
2023-01-13T05:54:29.047Z,10.60
2023-01-13T05:59:50.775Z,17.10
2023-01-13T06:05:13.006Z,17.20
2023-01-13T06:10:35.869Z,13.80
2023-01-13T06:16:00.620Z,14.30
2023-01-13T06:21:23.215Z,10.70
2023-01-13T06:26:44.783Z,6.20
2023-01-13T06:32:14.596Z,8.00
2023-01-13T06:37:37.122Z,8.10
2023-01-13T06:43:17.644Z,11.10
2023-01-13T06:48:39.753Z,21.70
2023-01-13T06:54:01.777Z,15.70
2023-01-13T06:59:26.914Z,8.50
2023-01-13T07:04:48.944Z,10.40
2023-01-13T07:10:22.372Z,10.80
2023-01-13T07:15:59.953Z,7.90
2023-01-13T07:21:22.232Z,11.20
2023-01-13T07:26:44.438Z,7.70
2023-01-13T07:32:07.103Z,9.90
2023-01-13T07:37:28.926Z,8.20
2023-01-13T07:43:09.615Z,6.60
2023-01-13T07:48:33.255Z,8.60
2023-01-13T07:53:55.079Z,9.80
2023-01-13T07:59:19.249Z,11.00
2023-01-13T08:04:41.353Z,7.20
2023-01-13T08:10:04.279Z,8.90
2023-01-13T08:15:26.219Z,8.10
2023-01-13T08:20:50.398Z,8.20
2023-01-13T08:26:14.675Z,12.80
2023-01-13T08:31:36.414Z,10.90
2023-01-13T08:36:58.645Z,8.60
2023-01-13T08:42:20.671Z,17.10
2023-01-13T08:47:42.711Z,13.60
2023-01-13T08:53:04.732Z,9.70
2023-01-13T08:58:27.012Z,9.70
2023-01-13T09:03:49.195Z,10.70
2023-01-13T09:09:11.427Z,7.50
2023-01-13T09:14:36.367Z,10.30
2023-01-13T09:20:01.009Z,14.40
2023-01-13T09:25:22.830Z,10.30
2023-01-13T09:30:46.742Z,13.00
2023-01-13T09:36:11.820Z,10.00
2023-01-13T09:42:00.130Z,11.10
2023-01-13T09:47:26.481Z,12.90
2023-01-13T09:52:48.418Z,9.20
2023-01-13T09:58:16.887Z,10.50
2023-01-13T10:03:38.791Z,11.80
2023-01-13T10:09:01.111Z,14.60
2023-01-13T10:14:41.811Z,11.20
2023-01-13T10:20:18.009Z,11.50
2023-01-13T10:25:54.546Z,12.20
2023-01-13T10:31:21.126Z,12.30
2023-01-13T10:37:08.661Z,8.00
2023-01-13T10:42:30.670Z,12.00
2023-01-13T10:48:07.942Z,25.10
2023-01-13T10:53:31.211Z,22.70
2023-01-13T10:58:54.032Z,15.50
2023-01-13T11:04:28.287Z,12.50
2023-01-13T11:10:21.110Z,9.30
2023-01-13T11:16:08.472Z,19.00
2023-01-13T11:21:44.124Z,18.90
2023-01-13T11:27:41.271Z,31.50
2023-01-13T11:33:15.457Z,17.80
2023-01-13T19:00:13.019Z,42.60
2023-01-13T19:05:36.090Z,39.30
2023-01-13T19:11:04.357Z,32.10
2023-01-13T19:21:48.215Z,39.30
2023-01-13T19:27:11.035Z,34.60
2023-01-13T19:32:33.416Z,30.80
2023-01-13T19:37:56.041Z,30.40
2023-01-13T19:43:36.710Z,30.20
2023-01-13T19:48:58.824Z,29.30
2023-01-13T19:54:23.763Z,49.00
2023-01-13T19:59:45.901Z,34.30
2023-01-13T20:05:08.991Z,33.20
2023-01-13T20:10:31.144Z,37.50
2023-01-13T20:15:53.211Z,29.90
2023-01-13T20:21:15.116Z,34.20
2023-01-13T20:26:39.970Z,25.60
2023-01-13T20:32:01.986Z,31.00
2023-01-13T20:37:23.616Z,49.80
2023-01-13T20:42:46.649Z,39.40
2023-01-13T20:48:08.891Z,36.80
2023-01-13T20:53:30.507Z,37.20
2023-01-13T20:58:54.000Z,29.10
2023-01-13T21:04:15.871Z,33.90
2023-01-13T21:09:38.304Z,29.90
2023-01-13T21:15:17.620Z,28.00
2023-01-13T21:20:41.512Z,28.20
2023-01-13T21:26:06.194Z,29.80
2023-01-13T21:31:28.235Z,25.30
2023-01-13T21:36:50.327Z,32.10
2023-01-13T21:42:33.340Z,30.40
2023-01-13T21:47:58.673Z,32.30
2023-01-13T21:53:20.410Z,30.00
2023-01-13T21:58:42.068Z,33.60
2023-01-13T22:04:12.996Z,32.10
2023-01-13T22:09:34.971Z,30.80
2023-01-13T22:14:57.351Z,35.10
2023-01-13T22:20:19.440Z,38.20
2023-01-13T22:25:41.863Z,30.40
2023-01-13T22:31:08.458Z,32.00
2023-01-13T22:36:30.697Z,32.70
2023-01-13T22:41:52.517Z,29.30
2023-01-13T22:47:14.945Z,29.90
2023-01-13T22:52:36.981Z,35.70
2023-01-13T22:58:00.526Z,28.50
2023-01-13T23:03:23.876Z,29.40
2023-01-13T23:08:46.938Z,25.30
2023-01-13T23:14:12.106Z,20.20
2023-01-13T23:19:33.850Z,26.60
2023-01-13T23:24:55.686Z,21.50
2023-01-13T23:30:17.953Z,24.20
2023-01-13T23:35:39.961Z,28.10
2023-01-13T23:41:06.077Z,21.20
2023-01-13T23:46:32.747Z,23.40
2023-01-13T23:51:55.059Z,20.40
2023-01-13T23:57:16.935Z,25.00
